Time;durP1;ratioP1;P1;durP2;ratioP2;P2;SDS_P1;SDS_P2;PMS_P1;PMS_P2;Temp;Humidity;BMP_temperature;BMP_pressure;BME280_temperature;BME280_humidity;BME280_pressure;Samples;Min_cycle;Max_cycle;Signal;HPM_P1;HPM_P2
2024/03/22 00:01:58;;;;;;;;;;;9.70;79.20;;;;;;5090743;28;19924;-76
2024/03/22 00:04:30;;;;;;;;;;;9.70;79.30;;;;;;5096995;28;20018;-76
2024/03/22 00:07:04;;;;;;;;;;;9.70;79.40;;;;;;5098240;28;20604;-74
2024/03/22 00:09:36;;;;;;;;;;;9.70;79.50;;;;;;5098609;28;19980;-75
2024/03/22 00:12:09;;;;;;;;;;;9.70;79.40;;;;;;5092701;28;19927;-76
2024/03/22 00:14:41;;;;;;;;;;;9.60;79.40;;;;;;5087325;28;19931;-76
2024/03/22 00:17:15;;;;;;;;;;;9.60;79.40;;;;;;5096225;28;19930;-76
2024/03/22 00:19:48;;;;;;;;;;;9.50;79.40;;;;;;5097379;28;19932;-77
2024/03/22 00:22:21;;;;;;;;;;;9.40;79.40;;;;;;5086884;28;20073;-62
2024/03/22 00:24:53;;;;;;;;;;;9.40;79.40;;;;;;5090820;28;20363;-62
2024/03/22 00:27:26;;;;;;;;;;;9.40;79.50;;;;;;5095752;28;19931;-60
2024/03/22 00:29:58;;;;;;;;;;;9.30;79.50;;;;;;5091238;28;20404;-62
2024/03/22 00:32:33;;;;;;;;;;;9.30;79.60;;;;;;5097010;28;19928;-60
2024/03/22 00:35:05;;;;;;;;;;;9.30;79.70;;;;;;5088489;28;19934;-60
2024/03/22 00:37:38;;;;;;;;;;;9.30;79.60;;;;;;5093882;28;19930;-62
2024/03/22 00:40:11;;;;;;;;;;;9.20;79.60;;;;;;5093899;28;20328;-62
2024/03/22 00:42:44;;;;;;;;;;;9.20;79.80;;;;;;5084979;28;20626;-60
2024/03/22 00:45:16;;;;;;;;;;;9.20;79.60;;;;;;5076425;28;19984;-62
2024/03/22 00:47:51;;;;;;;;;;;9.10;79.50;;;;;;5071705;28;19932;-62
2024/03/22 00:50:23;;;;;;;;;;;9.10;79.50;;;;;;5082369;28;19977;-61
2024/03/22 00:52:56;;;;;;;;;;;9.10;79.50;;;;;;5079672;28;19928;-60
2024/03/22 00:55:28;;;;;;;;;;;9.00;79.40;;;;;;5076130;28;19932;-61
2024/03/22 00:58:01;;;;;;;;;;;9.00;79.30;;;;;;5067759;28;20964;-61
2024/03/22 01:00:34;;;;;;;;;;;8.90;79.50;;;;;;5078078;28;19932;-60
2024/03/22 01:03:09;;;;;;;;;;;8.90;79.50;;;;;;5072933;28;19936;-62
2024/03/22 01:05:42;;;;;;;;;;;8.90;79.60;;;;;;5084401;28;20685;-61
2024/03/22 01:08:15;;;;;;;;;;;8.80;79.50;;;;;;5081164;28;19932;-61
2024/03/22 01:10:47;;;;;;;;;;;8.80;79.60;;;;;;5079723;28;19928;-60
2024/03/22 01:13:20;;;;;;;;;;;8.80;79.60;;;;;;5080364;28;19928;-61
2024/03/22 01:15:52;;;;;;;;;;;8.70;79.60;;;;;;5077345;28;20430;-61
2024/03/22 01:18:27;;;;;;;;;;;8.70;79.50;;;;;;5078816;28;19932;-60
2024/03/22 01:20:59;;;;;;;;;;;8.60;79.70;;;;;;5079141;28;20015;-61
2024/03/22 01:23:32;;;;;;;;;;;8.70;79.70;;;;;;5098226;28;20033;-61
2024/03/22 01:26:04;;;;;;;;;;;8.60;79.70;;;;;;5084704;28;19985;-60
2024/03/22 01:28:37;;;;;;;;;;;8.60;79.60;;;;;;5082868;28;20012;-60
2024/03/22 01:31:09;;;;;;;;;;;8.70;79.70;;;;;;5081888;28;19998;-62
2024/03/22 01:33:43;;;;;;;;;;;8.60;79.70;;;;;;5088367;28;20072;-61
2024/03/22 01:36:16;;;;;;;;;;;8.60;79.80;;;;;;5098295;28;19989;-61
2024/03/22 01:38:49;;;;;;;;;;;8.50;79.90;;;;;;5099946;28;19925;-62
2024/03/22 01:41:21;;;;;;;;;;;8.50;80.00;;;;;;5099392;28;19924;-63
2024/03/22 01:43:54;;;;;;;;;;;8.40;79.90;;;;;;5101104;28;19924;-62
2024/03/22 01:46:26;;;;;;;;;;;8.40;79.90;;;;;;5076809;28;20746;-65
2024/03/22 01:49:01;;;;;;;;;;;8.40;80.00;;;;;;5081188;28;19928;-61
2024/03/22 01:51:33;;;;;;;;;;;8.30;80.10;;;;;;5077681;28;19927;-62
2024/03/22 01:54:09;;;;;;;;;;;8.30;80.00;;;;;;5094823;28;20034;-61
2024/03/22 01:56:41;;;;;;;;;;;8.30;80.00;;;;;;5084781;28;19930;-60
2024/03/22 01:59:15;;;;;;;;;;;8.30;80.10;;;;;;5094707;28;19928;-61
2024/03/22 02:01:48;;;;;;;;;;;8.20;80.10;;;;;;5080131;28;20420;-62
2024/03/22 02:04:23;;;;;;;;;;;8.20;80.20;;;;;;5080909;28;19932;-62
2024/03/22 02:06:55;;;;;;;;;;;8.20;80.30;;;;;;5080491;28;20040;-62
2024/03/22 02:09:28;;;;;;;;;;;8.20;80.30;;;;;;5081595;28;19954;-62
2024/03/22 02:12:01;;;;;;;;;;;8.20;80.20;;;;;;5074487;28;19985;-62
2024/03/22 02:14:34;;;;;;;;;;;8.20;80.30;;;;;;5069588;28;19924;-62
2024/03/22 02:17:06;;;;;;;;;;;8.10;80.20;;;;;;5074304;28;19939;-60
2024/03/22 02:19:41;;;;;;;;;;;8.20;80.20;;;;;;5073111;28;20429;-62
2024/03/22 02:22:13;;;;;;;;;;;8.10;80.10;;;;;;5075932;28;19935;-61
2024/03/22 02:24:48;;;;;;;;;;;8.00;80.20;;;;;;5096791;28;19923;-62
2024/03/22 02:27:20;;;;;;;;;;;8.00;80.10;;;;;;5077636;28;20023;-60
2024/03/22 02:30:00;;;;;;;;;;;8.00;80.10;;;;;;5094488;28;20456;-61
2024/03/22 02:32:32;;;;;;;;;;;8.00;80.10;;;;;;5096738;28;19935;-62
2024/03/22 02:35:05;;;;;;;;;;;8.00;80.00;;;;;;5093918;28;19935;-61
2024/03/22 02:37:38;;;;;;;;;;;7.90;80.10;;;;;;5091823;28;20482;-62
2024/03/22 02:40:07;;;;;;;;;;;7.90;80.00;;;;;;5094297;28;20011;-62
2024/03/22 02:42:39;;;;;;;;;;;7.90;79.90;;;;;;5088806;28;19950;-61
2024/03/22 02:45:12;;;;;;;;;;;7.80;80.00;;;;;;5085488;28;20007;-61
2024/03/22 02:47:44;;;;;;;;;;;7.80;80.00;;;;;;5094143;28;19939;-61
2024/03/22 02:50:17;;;;;;;;;;;7.70;80.10;;;;;;5084429;28;19938;-62
2024/03/22 02:52:50;;;;;;;;;;;7.70;80.00;;;;;;5088259;28;19924;-62
2024/03/22 02:55:25;;;;;;;;;;;7.70;80.10;;;;;;5071209;28;19939;-62
2024/03/22 02:57:57;;;;;;;;;;;7.70;80.20;;;;;;5073775;28;19963;-62
2024/03/22 03:00:30;;;;;;;;;;;7.70;80.20;;;;;;5073820;28;19935;-62
2024/03/22 03:03:02;;;;;;;;;;;7.70;80.00;;;;;;5087508;28;19928;-62
2024/03/22 03:05:35;;;;;;;;;;;7.70;80.00;;;;;;5089352;28;20490;-62
2024/03/22 03:08:07;;;;;;;;;;;7.60;80.10;;;;;;5096987;28;20579;-61
2024/03/22 03:10:42;;;;;;;;;;;7.60;80.10;;;;;;5090998;28;19924;-60
2024/03/22 03:13:14;;;;;;;;;;;7.60;80.10;;;;;;5092683;28;19992;-62
2024/03/22 03:15:41;;;;;;;;;;;7.50;80.10;;;;;;5080768;28;20362;-62
2024/03/22 03:18:14;;;;;;;;;;;7.50;80.10;;;;;;5088032;28;21884;-61
2024/03/22 03:20:46;;;;;;;;;;;7.50;80.20;;;;;;5068030;28;20529;-61
2024/03/22 03:23:19;;;;;;;;;;;7.40;80.20;;;;;;5069016;28;19932;-61
2024/03/22 03:25:53;;;;;;;;;;;7.40;80.10;;;;;;5074142;28;19924;-62
2024/03/22 03:28:19;;;;;;;;;;;7.40;80.20;;;;;;5071601;28;19928;-61
2024/03/22 03:30:51;;;;;;;;;;;7.40;80.30;;;;;;5092190;28;19924;-63
2024/03/22 03:33:24;;;;;;;;;;;7.40;80.40;;;;;;5095902;28;19935;-61
2024/03/22 03:35:56;;;;;;;;;;;7.40;80.30;;;;;;5095302;28;20340;-63
2024/03/22 03:38:29;;;;;;;;;;;7.30;80.30;;;;;;5096922;28;19971;-61
2024/03/22 03:41:03;;;;;;;;;;;7.30;80.30;;;;;;5096836;28;19928;-61
2024/03/22 03:43:36;;;;;;;;;;;7.30;80.20;;;;;;5090561;28;20026;-62
2024/03/22 03:46:08;;;;;;;;;;;7.20;80.20;;;;;;5094549;28;20017;-61
2024/03/22 03:48:41;;;;;;;;;;;7.20;80.20;;;;;;5095833;28;19932;-62
2024/03/22 03:51:13;;;;;;;;;;;7.20;80.30;;;;;;5095193;28;20592;-61
2024/03/22 03:53:46;;;;;;;;;;;7.10;80.20;;;;;;5095073;28;19932;-68
2024/03/22 03:56:20;;;;;;;;;;;7.20;80.20;;;;;;5096843;28;19939;-67
2024/03/22 03:58:54;;;;;;;;;;;7.10;80.20;;;;;;5093846;28;19951;-67
2024/03/22 04:01:26;;;;;;;;;;;7.10;80.10;;;;;;5080914;28;19932;-67
2024/03/22 04:03:59;;;;;;;;;;;7.10;80.20;;;;;;5089457;28;19932;-67
2024/03/22 04:06:31;;;;;;;;;;;7.10;80.00;;;;;;5095844;28;19931;-67
2024/03/22 04:09:05;;;;;;;;;;;7.00;80.00;;;;;;5096547;28;19950;-68
2024/03/22 04:11:41;;;;;;;;;;;7.00;80.10;;;;;;5090188;28;19927;-68
2024/03/22 04:14:14;;;;;;;;;;;6.90;80.20;;;;;;5093852;28;19975;-68
2024/03/22 04:16:47;;;;;;;;;;;6.90;80.20;;;;;;5090943;28;20015;-68
2024/03/22 04:19:21;;;;;;;;;;;6.90;80.10;;;;;;5090495;28;19930;-67
2024/03/22 04:21:53;;;;;;;;;;;6.90;80.30;;;;;;5081470;28;19986;-66
2024/03/22 04:24:26;;;;;;;;;;;6.90;80.50;;;;;;5087830;28;20681;-68
2024/03/22 04:27:00;;;;;;;;;;;6.80;80.50;;;;;;5091297;28;19928;-67
2024/03/22 04:29:33;;;;;;;;;;;6.80;80.70;;;;;;5089455;28;20446;-69
2024/03/22 04:32:05;;;;;;;;;;;6.80;80.70;;;;;;5091983;28;19930;-65
2024/03/22 04:34:42;;;;;;;;;;;6.80;80.60;;;;;;5084773;28;19924;-67
2024/03/22 04:37:15;;;;;;;;;;;6.70;80.70;;;;;;5084026;28;20322;-67
2024/03/22 04:39:48;;;;;;;;;;;6.70;80.70;;;;;;5086460;28;19935;-67
2024/03/22 04:42:23;;;;;;;;;;;6.70;80.60;;;;;;5087794;28;20329;-68
2024/03/22 04:44:57;;;;;;;;;;;6.80;80.70;;;;;;5086630;28;19931;-68
2024/03/22 04:47:29;;;;;;;;;;;6.70;80.70;;;;;;5090934;28;19928;-66
2024/03/22 04:50:02;;;;;;;;;;;6.70;80.70;;;;;;5090923;28;20406;-68
2024/03/22 04:52:42;;;;;;;;;;;6.70;80.80;;;;;;5080066;28;19939;-67
2024/03/22 04:55:16;;;;;;;;;;;6.70;80.80;;;;;;5085142;28;19928;-66
2024/03/22 04:57:51;;;;;;;;;;;6.70;81.00;;;;;;5088519;28;19932;-66
2024/03/22 05:00:25;;;;;;;;;;;6.70;81.10;;;;;;5089662;28;19951;-68
2024/03/22 05:02:57;;;;;;;;;;;6.70;81.20;;;;;;5088633;28;19928;-75
2024/03/22 05:05:30;;;;;;;;;;;6.70;81.40;;;;;;5095659;28;19927;-77
2024/03/22 05:08:03;;;;;;;;;;;6.80;81.60;;;;;;5088084;28;19931;-76
2024/03/22 05:10:36;;;;;;;;;;;6.80;81.80;;;;;;5089657;28;19932;-76
2024/03/22 05:13:10;;;;;;;;;;;6.80;81.90;;;;;;5088002;28;19928;-74
2024/03/22 05:15:36;;;;;;;;;;;6.80;82.10;;;;;;5087813;28;20411;-75
2024/03/22 05:18:08;;;;;;;;;;;6.80;82.00;;;;;;5092471;28;19932;-77
2024/03/22 05:20:41;;;;;;;;;;;6.90;82.00;;;;;;5094968;28;20716;-76
2024/03/22 05:23:15;;;;;;;;;;;6.90;82.00;;;;;;5090069;28;20650;-74
2024/03/22 05:25:48;;;;;;;;;;;6.90;82.00;;;;;;5089987;28;20016;-74
2024/03/22 05:28:22;;;;;;;;;;;6.90;82.10;;;;;;5095046;28;19924;-76
2024/03/22 05:30:55;;;;;;;;;;;6.80;82.00;;;;;;5086834;28;19935;-77
2024/03/22 05:33:28;;;;;;;;;;;6.90;81.90;;;;;;5094557;28;20693;-74
2024/03/22 05:36:01;;;;;;;;;;;6.90;82.00;;;;;;5089119;28;19932;-74
2024/03/22 05:38:33;;;;;;;;;;;6.90;82.10;;;;;;5092177;28;19928;-77
2024/03/22 05:41:07;;;;;;;;;;;6.80;82.10;;;;;;5090686;28;19932;-76
2024/03/22 05:43:42;;;;;;;;;;;6.90;82.20;;;;;;5083159;28;20819;-75
2024/03/22 05:46:15;;;;;;;;;;;6.90;82.10;;;;;;5090434;28;19928;-76
2024/03/22 05:48:50;;;;;;;;;;;7.00;82.10;;;;;;5089071;28;20062;-75
2024/03/22 05:51:22;;;;;;;;;;;7.00;82.00;;;;;;5083677;28;19932;-75
2024/03/22 05:53:56;;;;;;;;;;;7.00;82.00;;;;;;5092293;28;20030;-75
2024/03/22 05:56:37;;;;;;;;;;;7.10;82.00;;;;;;5093739;28;20374;-74
2024/03/22 05:59:25;;;;;;;;;;;7.10;81.90;;;;;;5098240;28;20385;-76
2024/03/22 06:02:08;;;;;;;;;;;7.10;82.00;;;;;;5100954;28;19924;-73
2024/03/22 06:05:07;;;;;;;;;;;7.10;82.10;;;;;;5100234;28;20054;-74
2024/03/22 06:07:41;;;;;;;;;;;7.20;82.10;;;;;;5095940;28;19952;-74
2024/03/22 06:10:15;;;;;;;;;;;7.20;82.20;;;;;;5101616;28;19928;-73
2024/03/22 06:12:47;;;;;;;;;;;7.20;82.40;;;;;;5097699;28;19935;-75
2024/03/22 06:15:22;;;;;;;;;;;7.20;82.40;;;;;;5095991;28;20008;-72
2024/03/22 06:21:31;;;;;;;;;;;7.20;82.40;;;;;;5096756;28;19922;-74
2024/03/22 06:24:04;;;;;;;;;;;7.10;82.40;;;;;;5098936;28;19928;-74
2024/03/22 06:26:38;;;;;;;;;;;7.10;82.50;;;;;;5098771;28;20256;-74
2024/03/22 06:29:11;;;;;;;;;;;7.20;82.50;;;;;;5094745;28;19973;-74
2024/03/22 06:31:39;;;;;;;;;;;7.20;82.50;;;;;;5093485;28;19932;-74
2024/03/22 06:34:12;;;;;;;;;;;7.20;82.50;;;;;;5092066;28;19997;-74
2024/03/22 06:36:44;;;;;;;;;;;7.20;82.40;;;;;;5096587;28;19929;-74
2024/03/22 06:39:16;;;;;;;;;;;7.20;82.60;;;;;;5091436;28;19927;-75
2024/03/22 06:41:49;;;;;;;;;;;7.20;82.30;;;;;;5096006;28;19928;-73
2024/03/22 06:44:15;;;;;;;;;;;7.30;82.50;;;;;;5098034;28;19924;-66
2024/03/22 06:46:50;;;;;;;;;;;7.40;82.60;;;;;;5093396;28;19924;-74
2024/03/22 06:49:17;;;;;;;;;;;7.40;82.70;;;;;;5097282;28;19924;-74
2024/03/22 06:55:26;;;;;;;;;;;7.40;82.40;;;;;;5086021;28;19976;-73
2024/03/22 06:57:59;;;;;;;;;;;7.60;82.30;;;;;;5094663;28;19927;-75
2024/03/22 07:00:33;;;;;;;;;;;7.60;82.40;;;;;;5095363;28;19935;-75
2024/03/22 07:03:02;;;;;;;;;;;7.60;82.60;;;;;;5098172;28;20014;-72
2024/03/22 07:05:37;;;;;;;;;;;7.70;82.40;;;;;;5089998;28;20176;-75
2024/03/22 07:08:35;;;;;;;;;;;7.70;82.10;;;;;;5095745;28;19939;-74
2024/03/22 07:11:09;;;;;;;;;;;7.80;82.20;;;;;;5096132;28;19934;-73
2024/03/22 07:13:41;;;;;;;;;;;7.90;81.70;;;;;;5094897;28;19928;-74
2024/03/22 07:16:15;;;;;;;;;;;7.90;81.70;;;;;;5095545;28;20500;-76
2024/03/22 07:18:48;;;;;;;;;;;8.00;81.50;;;;;;5094435;28;19924;-73
2024/03/22 07:21:21;;;;;;;;;;;8.00;81.60;;;;;;5088970;28;19958;-73
2024/03/22 07:23:54;;;;;;;;;;;8.10;81.50;;;;;;5095294;28;19932;-60
2024/03/22 07:26:27;;;;;;;;;;;8.20;81.50;;;;;;5091399;28;19934;-62
2024/03/22 07:29:00;;;;;;;;;;;8.30;81.80;;;;;;5095293;28;20341;-62
2024/03/22 07:31:33;;;;;;;;;;;8.40;81.10;;;;;;5091662;28;19924;-62
2024/03/22 07:34:06;;;;;;;;;;;8.40;81.20;;;;;;5094359;28;19924;-62
2024/03/22 07:36:40;;;;;;;;;;;8.50;81.60;;;;;;5096876;28;20001;-61
2024/03/22 07:39:12;;;;;;;;;;;8.50;81.50;;;;;;5095567;28;20378;-61
2024/03/22 07:41:46;;;;;;;;;;;8.60;81.80;;;;;;5097934;28;19973;-61
2024/03/22 07:44:19;;;;;;;;;;;8.60;82.10;;;;;;5092521;28;19971;-62
2024/03/22 07:46:53;;;;;;;;;;;8.70;81.80;;;;;;5092546;28;19950;-61
2024/03/22 07:49:26;;;;;;;;;;;8.80;81.90;;;;;;5096585;28;19966;-62
2024/03/22 08:13:32;;;;;;;;;;;9.00;81.90;;;;;;5090963;28;19978;-62
2024/03/22 08:16:05;;;;;;;;;;;9.00;81.70;;;;;;5088970;28;20323;-61
2024/03/22 08:18:38;;;;;;;;;;;9.10;81.70;;;;;;5090874;28;19974;-62
2024/03/22 08:21:10;;;;;;;;;;;9.20;81.70;;;;;;5091270;28;19936;-62
2024/03/22 08:23:43;;;;;;;;;;;9.20;81.60;;;;;;5092033;28;19932;-62
2024/03/22 08:26:15;;;;;;;;;;;9.20;81.70;;;;;;5095522;28;19924;-62
2024/03/22 08:28:50;;;;;;;;;;;9.30;81.60;;;;;;5093003;28;20007;-61
2024/03/22 08:31:25;;;;;;;;;;;9.30;81.60;;;;;;5089896;28;20007;-63
2024/03/22 08:33:59;;;;;;;;;;;9.20;81.60;;;;;;5091960;28;19942;-60
2024/03/22 08:36:45;;;;;;;;;;;9.30;81.60;;;;;;5093118;28;19985;-61
2024/03/22 08:39:17;;;;;;;;;;;9.30;81.70;;;;;;5089290;28;19928;-61
2024/03/22 08:41:50;;;;;;;;;;;9.30;81.60;;;;;;5087860;28;20061;-59
2024/03/22 08:44:18;;;;;;;;;;;9.20;81.70;;;;;;5092368;28;19962;-62
2024/03/22 08:46:50;;;;;;;;;;;9.30;81.90;;;;;;5088242;28;19931;-61
2024/03/22 08:49:23;;;;;;;;;;;9.30;82.00;;;;;;5091203;28;20317;-60
2024/03/22 08:51:56;;;;;;;;;;;9.40;82.10;;;;;;5092141;28;19928;-60
2024/03/22 08:54:22;;;;;;;;;;;9.40;82.40;;;;;;5085866;28;19984;-60
2024/03/22 08:56:55;;;;;;;;;;;9.50;82.60;;;;;;5089047;28;20011;-61
2024/03/22 08:59:30;;;;;;;;;;;9.60;82.60;;;;;;5086244;27;20378;-60
2024/03/22 09:02:03;;;;;;;;;;;9.70;82.80;;;;;;5090170;28;19964;-61
2024/03/22 09:04:35;;;;;;;;;;;9.70;83.00;;;;;;5093653;28;20361;-61
2024/03/22 09:07:07;;;;;;;;;;;9.70;83.10;;;;;;5088572;28;19946;-61
2024/03/22 09:09:41;;;;;;;;;;;9.80;82.90;;;;;;5091992;28;19931;-60
2024/03/22 09:12:45;;;;;;;;;;;9.90;83.20;;;;;;5088242;28;19931;-60
2024/03/22 09:15:21;;;;;;;;;;;10.00;83.20;;;;;;5090748;28;20038;-62
2024/03/22 09:17:54;;;;;;;;;;;10.20;83.00;;;;;;5090530;28;19931;-61
2024/03/22 09:20:27;;;;;;;;;;;10.30;82.80;;;;;;5089177;28;19946;-60
2024/03/22 09:26:12;;;;;;;;;;;10.70;83.00;;;;;;5089858;28;20294;-60
2024/03/22 09:28:46;;;;;;;;;;;11.00;82.50;;;;;;5088674;28;20030;-60
2024/03/22 09:31:20;;;;;;;;;;;11.00;82.80;;;;;;5088659;28;20290;-61
2024/03/22 09:33:53;;;;;;;;;;;11.10;83.00;;;;;;5097436;28;20397;-61
2024/03/22 09:36:25;;;;;;;;;;;11.00;83.10;;;;;;5095459;28;19935;-62
2024/03/22 09:38:58;;;;;;;;;;;11.00;83.10;;;;;;5098034;28;19939;-60
2024/03/22 09:41:32;;;;;;;;;;;11.00;83.20;;;;;;5092259;28;19928;-62
2024/03/22 09:44:05;;;;;;;;;;;11.10;83.10;;;;;;5095919;28;20007;-60
2024/03/22 09:46:41;;;;;;;;;;;11.10;83.20;;;;;;5094238;28;20367;-61
2024/03/22 09:49:14;;;;;;;;;;;11.10;83.30;;;;;;5096202;28;20024;-59
2024/03/22 09:51:49;;;;;;;;;;;11.10;83.30;;;;;;5093128;28;20013;-61
2024/03/22 09:54:23;;;;;;;;;;;11.10;83.20;;;;;;5091999;28;19923;-60
2024/03/22 09:56:57;;;;;;;;;;;11.20;83.20;;;;;;5095899;28;19923;-60
2024/03/22 09:59:29;;;;;;;;;;;11.20;83.20;;;;;;5098703;28;19986;-60
2024/03/22 10:02:12;;;;;;;;;;;11.40;83.30;;;;;;5092778;28;20408;-62
2024/03/22 10:04:44;;;;;;;;;;;11.50;82.80;;;;;;5087299;28;20018;-61
2024/03/22 10:07:18;;;;;;;;;;;11.70;82.30;;;;;;5092887;28;19946;-61
2024/03/22 10:09:51;;;;;;;;;;;12.00;81.80;;;;;;5093451;28;19928;-60
2024/03/22 10:12:25;;;;;;;;;;;12.20;81.00;;;;;;5094278;28;19959;-61
2024/03/22 10:14:58;;;;;;;;;;;12.60;80.60;;;;;;5097491;28;20382;-61
2024/03/22 10:18:24;;;;;;;;;;;12.90;80.20;;;;;;5096392;28;20409;-60
2024/03/22 10:21:01;;;;;;;;;;;13.20;79.50;;;;;;5090872;28;20394;-59
2024/03/22 10:23:35;;;;;;;;;;;13.60;79.00;;;;;;5093800;28;19934;-61
2024/03/22 10:26:07;;;;;;;;;;;13.80;78.00;;;;;;5097139;28;19928;-60
2024/03/22 10:28:45;;;;;;;;;;;14.10;77.50;;;;;;5088385;28;20018;-60
2024/03/22 10:31:37;;;;;;;;;;;14.20;77.10;;;;;;5094395;28;19924;-60
2024/03/22 10:34:12;;;;;;;;;;;14.50;77.00;;;;;;5091738;28;19928;-61
2024/03/22 10:36:53;;;;;;;;;;;14.60;76.20;;;;;;5097653;28;20010;-62
2024/03/22 10:39:27;;;;;;;;;;;14.70;76.00;;;;;;5094650;28;19928;-61
2024/03/22 10:41:59;;;;;;;;;;;14.70;75.90;;;;;;5094938;28;20356;-60
2024/03/22 10:44:38;;;;;;;;;;;14.80;75.00;;;;;;5096154;28;19932;-61
2024/03/22 10:47:13;;;;;;;;;;;14.80;74.90;;;;;;5092116;28;20431;-61
2024/03/22 10:49:46;;;;;;;;;;;14.80;74.70;;;;;;5090703;28;20679;-60
2024/03/22 10:52:22;;;;;;;;;;;14.90;74.70;;;;;;5093930;28;20019;-67
2024/03/22 10:54:56;;;;;;;;;;;15.00;74.00;;;;;;5092198;28;19954;-68
2024/03/22 10:57:29;;;;;;;;;;;15.00;73.40;;;;;;5097933;28;20538;-66
2024/03/22 11:00:03;;;;;;;;;;;15.00;73.10;;;;;;5093673;28;19932;-68
2024/03/22 11:02:43;;;;;;;;;;;15.00;72.50;;;;;;5095698;28;19986;-68
2024/03/22 11:05:17;;;;;;;;;;;15.10;72.30;;;;;;5096315;28;20043;-65
2024/03/22 11:08:00;;;;;;;;;;;15.10;72.20;;;;;;5096348;28;19924;-68
2024/03/22 11:11:05;;;;;;;;;;;15.10;71.90;;;;;;5091246;28;19927;-67
2024/03/22 11:13:38;;;;;;;;;;;15.10;71.90;;;;;;5091429;28;20055;-68
2024/03/22 11:16:18;;;;;;;;;;;15.20;72.00;;;;;;5092359;28;20397;-68
2024/03/22 11:18:51;;;;;;;;;;;15.30;71.80;;;;;;5093721;28;19924;-67
2024/03/22 11:21:18;;;;;;;;;;;15.40;71.80;;;;;;5092836;28;20107;-67
2024/03/22 11:23:51;;;;;;;;;;;15.50;71.50;;;;;;5094332;28;20018;-67
2024/03/22 11:26:25;;;;;;;;;;;15.60;71.30;;;;;;5095367;28;19930;-68
2024/03/22 11:28:58;;;;;;;;;;;15.60;71.30;;;;;;5093570;28;20245;-68
2024/03/22 11:31:27;;;;;;;;;;;15.80;71.10;;;;;;5092620;28;19973;-68
2024/03/22 11:34:00;;;;;;;;;;;16.00;70.70;;;;;;5096067;28;19928;-66
2024/03/22 11:36:33;;;;;;;;;;;16.10;70.00;;;;;;5094198;28;19934;-68
2024/03/22 11:39:13;;;;;;;;;;;16.20;70.10;;;;;;5091416;28;19924;-67
2024/03/22 11:41:48;;;;;;;;;;;16.30;69.60;;;;;;5095468;28;19958;-68
2024/03/22 11:44:22;;;;;;;;;;;16.40;70.10;;;;;;5096965;28;19924;-68
2024/03/22 11:46:55;;;;;;;;;;;16.40;69.50;;;;;;5091813;28;19924;-68
2024/03/22 11:49:28;;;;;;;;;;;16.50;69.50;;;;;;5093875;28;19931;-67
2024/03/22 11:52:01;;;;;;;;;;;16.60;68.90;;;;;;5094321;28;19928;-68
2024/03/22 11:54:35;;;;;;;;;;;16.60;68.90;;;;;;5095865;28;19924;-67
2024/03/22 11:57:09;;;;;;;;;;;16.80;68.70;;;;;;5091384;28;20014;-67
2024/03/22 11:59:42;;;;;;;;;;;17.00;68.50;;;;;;5093237;28;19924;-67
2024/03/22 12:02:15;;;;;;;;;;;16.90;68.80;;;;;;5093604;28;20393;-69
2024/03/22 12:04:48;;;;;;;;;;;16.90;68.50;;;;;;5096678;28;19930;-68
2024/03/22 12:07:20;;;;;;;;;;;16.90;68.40;;;;;;5095793;28;19935;-69
2024/03/22 12:09:54;;;;;;;;;;;16.80;68.30;;;;;;5096794;28;19939;-69
2024/03/22 12:12:27;;;;;;;;;;;16.80;67.90;;;;;;5093189;28;20011;-61
2024/03/22 12:15:00;;;;;;;;;;;16.70;68.40;;;;;;5090738;28;20339;-62
2024/03/22 12:17:33;;;;;;;;;;;16.70;67.90;;;;;;5092823;28;19951;-62
2024/03/22 12:20:08;;;;;;;;;;;16.80;67.60;;;;;;5093511;28;20393;-60
2024/03/22 12:22:42;;;;;;;;;;;16.80;67.10;;;;;;5092333;28;19971;-60
2024/03/22 12:25:17;;;;;;;;;;;16.80;67.80;;;;;;5093928;28;19931;-62
2024/03/22 12:27:50;;;;;;;;;;;16.80;67.60;;;;;;5093177;28;19924;-61
2024/03/22 12:30:22;;;;;;;;;;;16.80;67.70;;;;;;5093053;28;19928;-61
2024/03/22 12:32:56;;;;;;;;;;;16.90;67.60;;;;;;5091605;28;19963;-61
2024/03/22 12:35:44;;;;;;;;;;;16.90;67.20;;;;;;5093161;28;21557;-61
2024/03/22 12:38:23;;;;;;;;;;;16.90;67.10;;;;;;5094335;28;19928;-60
2024/03/22 12:40:58;;;;;;;;;;;17.00;67.10;;;;;;5089123;28;19927;-61
2024/03/22 12:43:31;;;;;;;;;;;17.00;67.20;;;;;;5085481;28;20374;-60
2024/03/22 12:46:04;;;;;;;;;;;17.00;67.10;;;;;;5095658;28;20024;-61
2024/03/22 12:48:37;;;;;;;;;;;17.00;66.90;;;;;;5094937;28;19931;-61
2024/03/22 12:51:10;;;;;;;;;;;17.00;66.90;;;;;;5093200;28;19932;-59
2024/03/22 12:53:43;;;;;;;;;;;17.00;67.30;;;;;;5094657;28;19923;-60
2024/03/22 12:56:17;;;;;;;;;;;17.10;66.80;;;;;;5088655;28;19932;-63
2024/03/22 12:58:50;;;;;;;;;;;17.10;67.30;;;;;;5095269;28;19931;-61
2024/03/22 13:01:23;;;;;;;;;;;17.10;67.00;;;;;;5085265;28;19931;-62
2024/03/22 13:03:55;;;;;;;;;;;17.10;67.00;;;;;;5091738;28;19924;-61
2024/03/22 13:06:29;;;;;;;;;;;17.10;66.60;;;;;;5094576;28;20379;-61
2024/03/22 13:09:04;;;;;;;;;;;17.20;67.30;;;;;;5097400;28;20771;-62
2024/03/22 13:11:40;;;;;;;;;;;17.20;66.80;;;;;;5090064;28;19931;-61
2024/03/22 13:14:13;;;;;;;;;;;17.20;66.50;;;;;;5095955;28;19924;-61
2024/03/22 13:16:47;;;;;;;;;;;17.20;66.00;;;;;;5090423;28;20389;-62
2024/03/22 13:19:20;;;;;;;;;;;17.20;66.30;;;;;;5090678;28;19924;-61
2024/03/22 13:21:53;;;;;;;;;;;17.30;66.00;;;;;;5092413;28;19928;-60
2024/03/22 13:24:25;;;;;;;;;;;17.30;66.20;;;;;;5093295;28;20382;-62
2024/03/22 13:26:59;;;;;;;;;;;17.20;65.80;;;;;;5085048;28;19935;-62
2024/03/22 13:29:31;;;;;;;;;;;17.30;66.10;;;;;;5092509;28;19928;-61
2024/03/22 13:32:06;;;;;;;;;;;17.30;66.10;;;;;;5089820;28;19932;-61
2024/03/22 13:34:39;;;;;;;;;;;17.40;66.20;;;;;;5091823;28;19939;-61
2024/03/22 13:37:13;;;;;;;;;;;17.40;66.00;;;;;;5089785;28;20011;-61
2024/03/22 13:39:47;;;;;;;;;;;17.40;65.90;;;;;;5085585;28;19931;-62
2024/03/22 13:42:22;;;;;;;;;;;17.40;65.10;;;;;;5090713;28;19975;-62
2024/03/22 13:44:56;;;;;;;;;;;17.30;65.10;;;;;;5078399;28;19992;-61
2024/03/22 13:47:30;;;;;;;;;;;17.30;65.40;;;;;;5094580;28;20467;-62
2024/03/22 13:50:02;;;;;;;;;;;17.30;65.50;;;;;;5092063;28;20380;-61
2024/03/22 13:52:36;;;;;;;;;;;17.30;65.00;;;;;;5090251;28;19938;-61
2024/03/22 13:55:09;;;;;;;;;;;17.30;65.10;;;;;;5092773;28;20496;-61
2024/03/22 13:57:43;;;;;;;;;;;17.30;65.20;;;;;;5085703;28;19932;-61
2024/03/22 14:00:17;;;;;;;;;;;17.30;65.40;;;;;;5089326;28;19924;-63
2024/03/22 14:02:53;;;;;;;;;;;17.30;65.50;;;;;;5096448;28;20428;-61
2024/03/22 14:05:25;;;;;;;;;;;17.30;65.70;;;;;;5096697;28;19924;-61
2024/03/22 14:07:59;;;;;;;;;;;17.40;66.20;;;;;;5096962;28;20302;-61
2024/03/22 14:10:31;;;;;;;;;;;17.40;65.80;;;;;;5093547;28;19982;-61
2024/03/22 14:13:07;;;;;;;;;;;17.40;65.70;;;;;;5096537;28;19928;-62
2024/03/22 14:15:40;;;;;;;;;;;17.40;65.70;;;;;;5094906;28;19924;-62
2024/03/22 14:18:13;;;;;;;;;;;17.30;65.50;;;;;;5092247;28;19935;-60
2024/03/22 14:20:45;;;;;;;;;;;17.20;65.50;;;;;;5098001;28;20360;-61
2024/03/22 14:23:18;;;;;;;;;;;17.20;65.40;;;;;;5097247;28;20004;-61
2024/03/22 14:25:46;;;;;;;;;;;17.20;65.70;;;;;;5076493;28;19972;-61
2024/03/22 14:28:21;;;;;;;;;;;17.20;66.40;;;;;;5093379;28;20065;-62
2024/03/22 14:30:54;;;;;;;;;;;17.20;65.90;;;;;;5092540;28;20019;-61
2024/03/22 14:33:20;;;;;;;;;;;17.10;65.70;;;;;;5092475;28;20011;-61
2024/03/22 14:35:53;;;;;;;;;;;17.10;66.00;;;;;;5085138;28;20544;-61
2024/03/22 14:38:26;;;;;;;;;;;17.00;66.50;;;;;;5090578;28;19932;-61
2024/03/22 14:40:58;;;;;;;;;;;17.00;66.80;;;;;;5091452;28;19993;-61
2024/03/22 14:43:34;;;;;;;;;;;16.90;66.70;;;;;;5089229;28;19931;-61
2024/03/22 14:46:07;;;;;;;;;;;16.90;66.60;;;;;;5092113;28;20392;-60
2024/03/22 14:48:40;;;;;;;;;;;16.80;66.90;;;;;;5098279;28;19963;-63
2024/03/22 14:51:12;;;;;;;;;;;16.70;66.70;;;;;;5086055;28;19936;-62
2024/03/22 14:53:46;;;;;;;;;;;16.70;66.80;;;;;;5093828;28;19924;-62
2024/03/22 14:56:19;;;;;;;;;;;16.70;67.20;;;;;;5093001;28;19934;-62
2024/03/22 14:58:53;;;;;;;;;;;16.60;67.50;;;;;;5095187;28;19931;-62
2024/03/22 15:01:27;;;;;;;;;;;16.60;67.70;;;;;;5096359;28;20666;-61
2024/03/22 15:04:00;;;;;;;;;;;16.60;67.80;;;;;;5097349;28;19959;-61
2024/03/22 15:06:33;;;;;;;;;;;16.60;68.30;;;;;;5080282;28;20007;-61
2024/03/22 15:12:41;;;;;;;;;;;16.50;68.30;;;;;;5094287;28;19987;-61
2024/03/22 15:15:15;;;;;;;;;;;16.40;68.40;;;;;;5094592;28;19924;-62
2024/03/22 15:17:49;;;;;;;;;;;16.40;68.50;;;;;;5096453;28;19931;-61
2024/03/22 15:20:21;;;;;;;;;;;16.40;68.60;;;;;;5091446;28;20350;-62
2024/03/22 15:22:54;;;;;;;;;;;16.30;68.90;;;;;;5084251;28;19931;-62
2024/03/22 15:25:27;;;;;;;;;;;16.20;69.00;;;;;;5087322;28;20393;-62
2024/03/22 15:28:00;;;;;;;;;;;16.20;69.10;;;;;;5097586;28;19928;-62
2024/03/22 15:30:33;;;;;;;;;;;16.30;69.60;;;;;;5095505;28;19932;-61
2024/03/22 15:33:07;;;;;;;;;;;16.20;69.10;;;;;;5095654;28;19977;-63
2024/03/22 15:35:40;;;;;;;;;;;16.20;69.20;;;;;;5098108;28;19935;-60
2024/03/22 15:38:13;;;;;;;;;;;16.20;69.30;;;;;;5073645;28;19928;-62